Millbrook, AL (36054)

4:48 PM CDT on April 25, 2015 (GMT -0500)
Robinson Springs | | Change Station
CLOSE
Current Station
Personal Weather Station
Location: Millbrook, AL
Elevation: 300 ft
Nearby Weather Stations

Elev 300 ft 32.52 °N, 86.36 °W | Updated 34 seconds ago

Mostly Cloudy
Mostly Cloudy
81.7 °F
Feels Like 85 °F
N
2.9
Wind Variable Wind from SW
Gusts 2.9 mph

Today
High -- | Low -- °F
--% Chance of Precip.
Yesterday
High -- | Low -- °F
Precip. -- in
6:05 AM 7:22 PM
Waxing Crescent, 49% visible
Pressure 29.66 in
Visibility 10.0 miles
Clouds Clear
Heat Index 85 °F
Dew Point 70 °F
Humidity 68%
Rainfall 0.00 in
Snow Depth Not available.
UV 5 out of 12
Pollen .70 out of 12
Air Quality Not available.
Flu Activity No Activity
METAR KMXF 252058Z AUTO 21007KT 10SM CLR 28/23 A2965 RMK AO2 LTG DSNT E AND S-SW DZB45 SLP042 P0000 60000 T02750226 57030

More Conditions Fewer Conditions

Pressure 29.66 in
Visibility 10.0 miles
Clouds Clear
Heat Index 85 °F
Dew Point 70 °F
Humidity 68%
Rainfall 0.00 in
Snow Depth Not available.
UV 5 out of 12
Pollen .70 out of 12
Air Quality Not available.
Flu Activity No Activity
METAR KMXF 252058Z AUTO 21007KT 10SM CLR 28/23 A2965 RMK AO2 LTG DSNT E AND S-SW DZB45 SLP042 P0000 60000 T02750226 57030

More Conditions Fewer Conditions

10-Day Weather Forecast

Almanac

Astronomy

Apr. 25, 2015 Rise Set
Actual Time
Civil Twilight
Nautical Twilight
Astronomical Twilight
Moon
Length of Visible Light
Length of Day
Tomorrow will be .
, % of the Moon is Illuminated

Today's Extremes

State Highs State Lows

Community

WunderPhotos

Upload Photos

1,816,820 photos uploaded!

WunderBlogs® & News

Nearby

Air Quality

  Air Quality AQ Index Pollutant
Not available.

Snow Depth

Station Depth Elevation

Earthquake Activity

City Distance Mag. Time & Date
Minimum magnitude displayed is 2.5.

Coastal Water Temperatures

Place Temperature

Stations

Nearby Weather Stations

Station Location Temp. Windchill Dew Point Humidity Wind Precip. Elev Updated Type